Time;durP1;ratioP1;P1;durP2;ratioP2;P2;SDS_P1;SDS_P2;PMS_P1;PMS_P2;Temp;Humidity;BMP_temperature;BMP_pressure;BME280_temperature;BME280_humidity;BME280_pressure;Samples;Min_cycle;Max_cycle;Signal;HPM_P1;HPM_P2
2024/03/04 00:01:36;;;;;;;28.83;17.77;;;;;;;8.07;100.00;99740.86;1459851;89;21361;-74
2024/03/04 00:04:03;;;;;;;29.27;17.20;;;;;;;8.00;100.00;99744.23;1457193;89;22277;-73
2024/03/04 00:06:29;;;;;;;27.80;18.90;;;;;;;7.91;100.00;99735.40;1466610;89;21367;-72
2024/03/04 00:08:56;;;;;;;25.23;17.60;;;;;;;7.85;100.00;99732.89;1459646;89;21511;-74
2024/03/04 00:11:22;;;;;;;31.50;20.13;;;;;;;7.79;100.00;99733.45;1452421;89;21844;-74
2024/03/04 00:13:48;;;;;;;26.67;17.73;;;;;;;7.71;100.00;99724.63;1458662;89;22350;-74
2024/03/04 00:16:14;;;;;;;32.60;18.73;;;;;;;7.63;100.00;99728.83;1456153;89;21345;-74
2024/03/04 00:18:43;;;;;;;30.07;17.57;;;;;;;7.57;100.00;99728.10;1477158;87;21331;-73
2024/03/04 00:21:09;;;;;;;28.10;17.77;;;;;;;7.52;100.00;99728.19;1459147;89;21516;-74
2024/03/04 00:23:36;;;;;;;33.07;20.47;;;;;;;7.45;100.00;99726.60;1459100;89;21353;-74
2024/03/04 00:26:03;;;;;;;38.20;19.50;;;;;;;7.41;100.00;99726.56;1461201;89;22262;-74
2024/03/04 00:28:30;;;;;;;35.43;20.90;;;;;;;7.37;100.00;99722.57;1462727;89;22390;-73
2024/03/04 00:30:56;;;;;;;32.83;19.40;;;;;;;7.35;100.00;99721.88;1457088;88;21391;-74
2024/03/04 00:33:22;;;;;;;46.37;21.87;;;;;;;7.31;100.00;99720.48;1462931;89;22454;-74
2024/03/04 00:35:49;;;;;;;32.83;19.40;;;;;;;7.29;100.00;99723.28;1460269;89;21522;-74
2024/03/04 00:38:15;;;;;;;38.13;22.70;;;;;;;7.24;100.00;99725.02;1459143;89;21456;-75
2024/03/04 00:40:41;;;;;;;33.23;20.80;;;;;;;7.22;100.00;99724.81;1456259;89;21352;-74
2024/03/04 00:43:07;;;;;;;41.10;20.23;;;;;;;7.20;100.00;99726.78;1457952;89;21368;-74
2024/03/04 00:45:33;;;;;;;29.40;19.03;;;;;;;7.16;100.00;99726.24;1463171;89;21360;-74
2024/03/04 00:47:59;;;;;;;33.80;19.43;;;;;;;7.12;100.00;99725.34;1465578;88;22227;-75
2024/03/04 00:50:25;;;;;;;35.43;21.00;;;;;;;7.09;100.00;99725.14;1454126;88;21905;-73
2024/03/04 00:52:51;;;;;;;34.17;18.40;;;;;;;7.07;100.00;99724.93;1463413;88;21478;-74
2024/03/04 00:55:17;;;;;;;36.67;21.10;;;;;;;7.07;100.00;99729.70;1463062;89;21515;-73
2024/03/04 00:57:44;;;;;;;49.80;21.10;;;;;;;7.07;100.00;99727.56;1457123;88;21404;-74
2024/03/04 01:00:14;;;;;;;35.13;21.23;;;;;;;7.08;100.00;99731.84;1467482;88;22305;-74
2024/03/04 01:02:38;;;;;;;42.37;19.47;;;;;;;7.06;100.00;99728.05;1456669;88;21352;-74
2024/03/04 01:05:05;;;;;;;34.43;19.13;;;;;;;7.06;100.00;99725.42;1457288;88;21382;-73
2024/03/04 01:07:32;;;;;;;32.83;19.13;;;;;;;7.04;100.00;99720.78;1458128;88;21607;-73
2024/03/04 01:09:58;;;;;;;36.63;21.50;;;;;;;7.03;100.00;99724.89;1463063;88;21552;-73
2024/03/04 01:12:24;;;;;;;38.23;20.47;;;;;;;7.00;100.00;99725.50;1457633;89;23705;-73
2024/03/04 01:14:50;;;;;;;27.93;18.77;;;;;;;6.99;100.00;99721.69;1464795;89;21508;-73
2024/03/04 01:17:16;;;;;;;34.17;19.93;;;;;;;6.98;100.00;99726.13;1459601;88;21493;-74
2024/03/04 01:19:46;;;;;;;32.57;20.03;;;;;;;6.96;100.00;99730.72;1462771;89;21360;-74
2024/03/04 01:22:17;;;;;;;28.70;18.17;;;;;;;6.96;100.00;99724.59;1468065;88;21367;-74
2024/03/04 01:24:50;;;;;;;31.52;19.48;;;;;;;6.94;100.00;99725.25;1459328;88;21338;-73
2024/03/04 01:27:17;;;;;;;32.77;20.77;;;;;;;6.92;100.00;99718.80;1460488;88;21412;-73
2024/03/04 01:29:43;;;;;;;33.73;19.47;;;;;;;6.91;100.00;99724.22;1460998;89;21567;-74
2024/03/04 01:32:10;;;;;;;29.23;18.60;;;;;;;6.88;100.00;99721.88;1459536;88;21405;-73
2024/03/04 01:34:40;;;;;;;33.83;21.00;;;;;;;6.84;100.00;99729.19;1464876;88;21427;-74
2024/03/04 01:37:08;;;;;;;35.03;18.70;;;;;;;6.82;100.00;99730.30;1465253;88;21567;-74
2024/03/04 01:39:35;;;;;;;32.07;18.27;;;;;;;6.78;100.00;99727.13;1453466;88;21344;-74
2024/03/04 01:42:02;;;;;;;28.40;17.00;;;;;;;6.73;100.00;99730.20;1460290;88;22424;-74
2024/03/04 01:44:35;;;;;;;28.87;18.27;;;;;;;6.69;100.00;99726.16;1456363;89;21574;-75
2024/03/04 01:47:07;;;;;;;33.10;21.80;;;;;;;6.65;100.00;99727.92;1458781;88;21531;-74
2024/03/04 01:49:37;;;;;;;37.17;20.90;;;;;;;6.61;100.00;99733.92;1454612;89;21420;-74
2024/03/04 01:52:05;;;;;;;26.12;16.12;;;;;;;6.57;100.00;99736.48;1452589;89;21383;-74
2024/03/04 01:54:35;;;;;;;32.27;20.63;;;;;;;6.52;100.00;99735.58;1459462;89;21412;-74
2024/03/04 01:57:02;;;;;;;32.30;18.50;;;;;;;6.49;100.00;99735.03;1445038;90;21444;-75
2024/03/04 01:59:29;;;;;;;37.60;20.13;;;;;;;6.45;100.00;99734.97;1448054;90;21434;-74
2024/03/04 02:01:55;;;;;;;28.20;19.37;;;;;;;6.42;100.00;99736.56;1454388;90;21501;-75
2024/03/04 02:04:21;;;;;;;35.70;19.83;;;;;;;6.37;100.00;99734.83;1456836;89;22343;-76
2024/03/04 02:06:49;;;;;;;34.63;19.23;;;;;;;6.32;100.00;99738.67;1452189;89;21360;-75
2024/03/04 02:09:18;;;;;;;30.83;19.03;;;;;;;6.28;100.00;99743.88;1458921;89;21386;-74
2024/03/04 02:11:44;;;;;;;28.77;20.30;;;;;;;6.23;100.00;99731.63;1454100;90;21390;-75
2024/03/04 02:14:11;;;;;;;29.50;18.43;;;;;;;6.20;100.00;99739.78;1445242;90;21442;-75
2024/03/04 02:16:37;;;;;;;30.57;19.80;;;;;;;6.16;100.00;99737.55;1451600;90;21368;-74
2024/03/04 02:19:05;;;;;;;28.83;18.70;;;;;;;6.13;100.00;99737.36;1446087;90;21471;-75
2024/03/04 02:21:33;;;;;;;31.20;18.63;;;;;;;6.10;100.00;99742.89;1450567;89;21301;-74
2024/03/04 02:23:59;;;;;;;36.80;20.83;;;;;;;6.06;100.00;99742.80;1461095;89;21397;-74
2024/03/04 02:26:26;;;;;;;33.07;19.07;;;;;;;6.03;100.00;99745.70;1457561;89;21390;-74
2024/03/04 02:28:52;;;;;;;28.77;18.30;;;;;;;5.99;100.00;99750.89;1450853;89;21420;-75
2024/03/04 02:31:19;;;;;;;33.00;19.00;;;;;;;5.95;100.00;99740.28;1459091;89;22886;-74
2024/03/04 02:33:45;;;;;;;29.87;19.27;;;;;;;5.89;100.00;99746.38;1460699;90;21545;-75
2024/03/04 02:36:12;;;;;;;39.97;22.00;;;;;;;5.85;100.00;99745.00;1451776;89;21458;-75
2024/03/04 02:38:38;;;;;;;39.73;21.23;;;;;;;5.78;100.00;99742.58;1446838;89;21383;-74
2024/03/04 02:41:05;;;;;;;43.47;22.23;;;;;;;5.72;100.00;99749.64;1447287;90;21657;-75
2024/03/04 02:43:31;;;;;;;37.80;21.80;;;;;;;5.67;100.00;99746.61;1451049;89;21331;-74
2024/03/04 02:45:57;;;;;;;40.57;21.80;;;;;;;5.63;100.00;99749.14;1458389;89;22389;-74
2024/03/04 02:48:23;;;;;;;28.87;18.97;;;;;;;5.60;100.00;99748.09;1456212;89;21626;-75
2024/03/04 02:50:50;;;;;;;31.87;18.27;;;;;;;5.58;100.00;99747.38;1465204;88;21339;-75
2024/03/04 02:53:16;;;;;;;36.87;20.47;;;;;;;5.55;100.00;99754.20;1462778;88;22453;-74
2024/03/04 02:55:43;;;;;;;34.80;18.97;;;;;;;5.50;100.00;99748.55;1468855;89;21352;-75
2024/03/04 02:58:09;;;;;;;29.77;18.97;;;;;;;5.42;100.00;99751.33;1467294;88;21390;-75
2024/03/04 03:00:35;;;;;;;33.37;19.80;;;;;;;5.38;100.00;99757.81;1457973;88;22389;-75
2024/03/04 03:03:01;;;;;;;31.07;18.77;;;;;;;5.33;100.00;99767.04;1458211;88;21397;-75
2024/03/04 03:05:28;;;;;;;28.90;18.00;;;;;;;5.28;100.00;99759.55;1458477;88;21515;-75
2024/03/04 03:07:54;;;;;;;27.07;17.13;;;;;;;5.26;100.00;99765.88;1468086;89;22293;-75
2024/03/04 03:10:20;;;;;;;23.73;17.17;;;;;;;5.22;100.00;99767.94;1468209;89;21390;-75
2024/03/04 03:12:46;;;;;;;28.10;19.17;;;;;;;5.18;100.00;99759.98;1464703;89;21508;-75
2024/03/04 03:15:12;;;;;;;35.43;19.83;;;;;;;5.14;100.00;99764.64;1466839;88;21412;-75
2024/03/04 03:17:38;;;;;;;32.10;21.23;;;;;;;5.12;100.00;99767.03;1463186;89;21389;-75
2024/03/04 03:20:16;;;;;;;30.40;18.93;;;;;;;5.05;100.00;99763.28;1464360;88;21382;-75
2024/03/04 03:22:34;;;;;;;26.83;17.63;;;;;;;5.03;100.00;99766.50;1466403;89;21485;-74
2024/03/04 03:25:00;;;;;;;29.63;18.50;;;;;;;5.01;100.00;99769.75;1462671;88;21485;-75
2024/03/04 03:27:28;;;;;;;29.97;18.53;;;;;;;4.95;100.00;99771.09;1464035;88;21397;-76
2024/03/04 03:29:55;;;;;;;35.00;20.67;;;;;;;4.88;100.00;99772.55;1467172;88;21487;-75
2024/03/04 03:32:21;;;;;;;28.17;17.93;;;;;;;4.84;100.00;99780.33;1455807;89;21345;-75
2024/03/04 03:34:47;;;;;;;24.00;16.87;;;;;;;4.80;100.00;99780.20;1453758;88;21412;-75
2024/03/04 03:37:13;;;;;;;25.43;16.97;;;;;;;4.76;100.00;99779.63;1463517;88;22254;-75
2024/03/04 03:39:39;;;;;;;26.40;17.60;;;;;;;4.74;100.00;99777.61;1466284;89;21397;-75
2024/03/04 03:42:07;;;;;;;28.77;18.33;;;;;;;4.72;100.00;99777.78;1457180;88;22366;-76
2024/03/04 03:44:34;;;;;;;29.00;16.90;;;;;;;4.67;100.00;99777.78;1461124;88;21518;-75
2024/03/04 03:46:59;;;;;;;24.73;16.70;;;;;;;4.69;100.00;99789.80;1463939;88;21382;-75
2024/03/04 03:49:25;;;;;;;26.63;16.90;;;;;;;4.65;100.00;99788.37;1455325;88;21443;-75
2024/03/04 03:51:52;;;;;;;32.27;18.17;;;;;;;4.62;100.00;99788.63;1447892;89;21375;-76
2024/03/04 03:54:18;;;;;;;26.33;15.83;;;;;;;4.49;100.00;99783.56;1453318;90;21549;-75
2024/03/04 03:56:45;;;;;;;26.00;17.93;;;;;;;4.49;100.00;99786.18;1449165;90;21353;-76
2024/03/04 03:59:11;;;;;;;28.47;16.37;;;;;;;4.49;100.00;99786.18;1459046;90;21449;-75
2024/03/04 04:01:37;;;;;;;25.03;16.57;;;;;;;4.47;100.00;99794.64;1456061;89;22156;-75
2024/03/04 04:04:04;;;;;;;24.97;16.80;;;;;;;4.45;100.00;99800.47;1451587;89;21353;-75
2024/03/04 04:06:30;;;;;;;28.33;17.10;;;;;;;4.42;100.00;99795.95;1451061;90;21540;-74
2024/03/04 04:08:56;;;;;;;22.70;16.07;;;;;;;4.39;100.00;99798.34;1446238;90;22071;-74
2024/03/04 04:11:22;;;;;;;31.10;17.07;;;;;;;4.37;100.00;99809.90;1451642;89;21442;-74
2024/03/04 04:13:48;;;;;;;22.13;15.53;;;;;;;4.33;100.00;99802.77;1457307;89;22366;-74
2024/03/04 04:16:14;;;;;;;40.43;16.83;;;;;;;4.33;100.00;99810.63;1451371;90;21398;-74
2024/03/04 04:18:41;;;;;;;24.13;16.33;;;;;;;4.33;100.00;99804.08;1451420;90;22069;-74
2024/03/04 04:21:08;;;;;;;24.73;16.17;;;;;;;4.34;100.00;99805.73;1455113;89;22084;-74
2024/03/04 04:23:35;;;;;;;24.97;16.00;;;;;;;4.33;100.00;99803.02;1453628;90;21591;-74
2024/03/04 04:26:01;;;;;;;25.73;16.80;;;;;;;4.30;100.00;99803.02;1449755;89;21338;-74
2024/03/04 04:28:28;;;;;;;26.23;15.70;;;;;;;4.30;100.00;99806.95;1451250;90;21673;-74
2024/03/04 04:30:54;;;;;;;28.10;17.53;;;;;;;4.30;100.00;99806.95;1450155;90;21361;-74
2024/03/04 04:33:22;;;;;;;22.50;15.67;;;;;;;4.31;100.00;99804.67;1444478;90;21449;-75
2024/03/04 04:35:49;;;;;;;35.87;17.07;;;;;;;4.34;100.00;99808.36;1452557;89;21345;-74
2024/03/04 04:38:19;;;;;;;24.37;17.07;;;;;;;4.35;100.00;99800.87;1456651;90;21294;-74
2024/03/04 04:40:45;;;;;;;;;;;;;;;4.39;100.00;99804.89;1456700;89;22322;-74
2024/03/04 04:43:11;;;;;;;44.33;18.23;;;;;;;4.43;100.00;99806.33;1463070;90;20373;-75
2024/03/04 04:45:37;;;;;;;27.20;16.37;;;;;;;4.43;100.00;99806.33;1457619;89;21384;-73
2024/03/04 04:48:05;;;;;;;28.60;18.63;;;;;;;4.46;100.00;99803.91;1461400;89;21411;-74
2024/03/04 04:50:31;;;;;;;22.77;16.80;;;;;;;4.43;100.00;99798.47;1450624;89;22343;-73
2024/03/04 04:52:58;;;;;;;32.37;18.57;;;;;;;4.43;100.00;99798.47;1458888;90;21464;-74
2024/03/04 04:55:24;;;;;;;35.93;18.40;;;;;;;4.48;100.00;99800.70;1459391;89;21525;-75
2024/03/04 04:57:50;;;;;;;28.33;16.90;;;;;;;4.50;100.00;99803.56;1447994;90;21452;-74
2024/03/04 05:00:16;;;;;;;27.70;18.47;;;;;;;4.53;100.00;99799.38;1454535;89;22337;-74
2024/03/04 05:02:42;;;;;;;28.53;18.33;;;;;;;4.53;100.00;99800.69;1458276;89;21566;-74
2024/03/04 05:05:09;;;;;;;26.17;18.57;;;;;;;4.55;100.00;99799.75;1453147;89;22314;-75
2024/03/04 05:07:35;;;;;;;34.20;18.90;;;;;;;4.50;100.00;99807.48;1452641;89;22260;-75
2024/03/04 05:10:01;;;;;;;34.70;18.77;;;;;;;4.50;100.00;99807.48;1443243;90;21459;-74
2024/03/04 05:12:27;;;;;;;31.60;19.93;;;;;;;4.55;100.00;99811.06;1447626;89;21537;-74
2024/03/04 05:14:55;;;;;;;31.87;19.83;;;;;;;4.56;100.00;99814.51;1453005;89;21470;-75
2024/03/04 05:17:22;;;;;;;33.93;22.30;;;;;;;4.58;100.00;99813.91;1451533;90;21427;-76
2024/03/04 05:19:48;;;;;;;35.83;22.53;;;;;;;4.59;100.00;99817.70;1451860;89;21338;-75
2024/03/04 05:22:14;;;;;;;42.73;23.30;;;;;;;4.61;100.00;99813.66;1450220;90;22225;-75
2024/03/04 05:24:40;;;;;;;36.13;21.33;;;;;;;4.63;100.00;99816.97;1445801;89;21596;-75
2024/03/04 05:27:06;;;;;;;46.50;24.17;;;;;;;4.66;100.00;99820.66;1457347;89;21361;-75
2024/03/04 05:29:32;;;;;;;42.57;23.67;;;;;;;4.68;100.00;99822.68;1457497;89;21471;-76
2024/03/04 05:31:58;;;;;;;35.87;21.87;;;;;;;4.71;100.00;99823.73;1457414;89;22468;-75
2024/03/04 05:34:26;;;;;;;36.40;24.33;;;;;;;4.74;100.00;99819.07;1453152;89;21470;-75
2024/03/04 05:36:52;;;;;;;35.80;23.47;;;;;;;4.81;100.00;99817.28;1449866;90;21464;-76
2024/03/04 05:39:21;;;;;;;37.73;26.10;;;;;;;4.88;100.00;99828.44;1450135;89;21508;-75
2024/03/04 05:45:46;;;;;;;44.50;25.83;;;;;;;5.06;100.00;99831.81;1450380;90;21478;-75
2024/03/04 05:48:13;;;;;;;38.10;23.87;;;;;;;5.21;100.00;99824.00;1458622;89;21332;-75
2024/03/04 05:50:39;;;;;;;42.00;23.63;;;;;;;5.31;100.00;99832.75;1450671;89;21398;-75
2024/03/04 05:53:05;;;;;;;37.87;23.73;;;;;;;5.42;100.00;99836.62;1458085;90;21537;-75
2024/03/04 05:55:31;;;;;;;47.33;24.73;;;;;;;5.53;100.00;99840.16;1449870;90;21398;-75
2024/03/04 05:57:58;;;;;;;49.23;24.37;;;;;;;5.62;100.00;99840.19;1447380;90;22377;-75
2024/03/04 06:00:24;;;;;;;39.60;23.43;;;;;;;5.68;100.00;99844.09;1465040;90;21588;-74
2024/03/04 06:02:50;;;;;;;39.27;23.40;;;;;;;5.73;100.00;99847.66;1455841;89;21449;-75
2024/03/04 06:05:16;;;;;;;36.97;21.73;;;;;;;5.77;100.00;99850.36;1446142;90;21530;-75
2024/03/04 06:07:42;;;;;;;38.10;23.70;;;;;;;5.80;100.00;99860.11;1450651;89;22764;-75
2024/03/04 06:10:09;;;;;;;34.43;23.60;;;;;;;5.86;100.00;99851.70;1453785;89;21310;-75
2024/03/04 06:12:35;;;;;;;33.73;24.77;;;;;;;5.94;100.00;99851.58;1459440;89;21338;-75
2024/03/04 06:15:02;;;;;;;42.57;25.57;;;;;;;6.02;100.00;99851.75;1456310;89;21804;-75
2024/03/04 06:17:30;;;;;;;54.67;27.50;;;;;;;6.12;100.00;99853.91;1448081;89;21493;-75
2024/03/04 06:19:56;;;;;;;41.77;26.40;;;;;;;6.23;100.00;99855.62;1451653;89;21471;-76
2024/03/04 06:22:23;;;;;;;45.30;26.50;;;;;;;6.33;100.00;99856.00;1453702;89;22337;-73
2024/03/04 06:24:49;;;;;;;50.13;27.70;;;;;;;6.43;100.00;99859.96;1450272;89;21368;-79
2024/03/04 06:27:16;;;;;;;44.33;24.97;;;;;;;6.52;100.00;99858.31;1453528;89;21360;-75
2024/03/04 06:29:42;;;;;;;36.53;25.97;;;;;;;6.59;100.00;99860.77;1462303;89;22374;-76
2024/03/04 06:32:08;;;;;;;38.37;24.47;;;;;;;6.69;100.00;99860.28;1446035;90;21426;-75
2024/03/04 06:34:34;;;;;;;39.33;25.20;;;;;;;6.80;100.00;99866.40;1454573;90;21428;-75
2024/03/04 06:37:00;;;;;;;37.90;25.20;;;;;;;6.91;100.00;99863.64;1449659;90;21360;-75
2024/03/04 06:39:27;;;;;;;39.07;25.43;;;;;;;7.02;100.00;99864.83;1441495;90;22322;-74
2024/03/04 06:41:54;;;;;;;39.37;25.13;;;;;;;7.13;100.00;99863.34;1454443;89;21398;-74
2024/03/04 06:44:20;;;;;;;38.80;23.57;;;;;;;7.25;100.00;99864.05;1452310;89;21597;-74
2024/03/04 06:46:46;;;;;;;41.00;24.27;;;;;;;7.35;100.00;99867.98;1451048;90;21509;-74
2024/03/04 06:49:13;;;;;;;44.67;27.63;;;;;;;7.45;100.00;99864.83;1455794;89;21360;-74
2024/03/04 06:51:39;;;;;;;50.23;29.53;;;;;;;7.55;100.00;99863.03;1462113;88;21330;-75
2024/03/04 06:54:10;;;;;;;40.03;25.87;;;;;;;7.66;100.00;99861.55;1452081;89;21381;-74
2024/03/04 06:56:38;;;;;;;35.40;22.70;;;;;;;7.77;100.00;99864.51;1467554;89;21462;-75
2024/03/04 06:59:04;;;;;;;37.00;22.27;;;;;;;7.88;100.00;99863.48;1465209;88;21360;-75
2024/03/04 07:01:30;;;;;;;38.90;23.90;;;;;;;7.98;100.00;99859.02;1473703;88;21308;-75
2024/03/04 07:03:56;;;;;;;39.23;24.33;;;;;;;8.04;100.00;99857.12;1461603;88;21367;-75
2024/03/04 07:06:23;;;;;;;43.33;24.40;;;;;;;8.13;100.00;99856.73;1467292;88;21434;-75
2024/03/04 07:08:49;;;;;;;41.17;23.63;;;;;;;8.19;100.00;99861.42;1460112;89;22417;-76
2024/03/04 07:11:15;;;;;;;37.77;23.33;;;;;;;8.26;100.00;99863.83;1461092;88;21382;-76
2024/03/04 07:13:51;;;;;;;38.43;22.43;;;;;;;8.36;100.00;99868.55;1469024;88;21499;-75
2024/03/04 07:16:17;;;;;;;44.87;22.00;;;;;;;8.49;100.00;99870.88;1459262;88;21383;-75
2024/03/04 07:18:44;;;;;;;39.17;24.83;;;;;;;8.62;100.00;99877.61;1458979;88;21382;-75
2024/03/04 07:21:15;;;;;;;43.30;26.27;;;;;;;8.72;100.00;99872.61;1462442;88;21470;-75
2024/03/04 07:23:41;;;;;;;35.68;24.20;;;;;;;8.84;100.00;99871.91;1462576;88;21346;-75
2024/03/04 07:26:09;;;;;;;41.93;26.37;;;;;;;8.95;100.00;99875.64;1459616;89;22571;-74
2024/03/04 07:28:41;;;;;;;44.63;27.93;;;;;;;9.15;100.00;99876.33;1460524;88;21688;-75
2024/03/04 07:31:04;;;;;;;35.43;21.93;;;;;;;9.41;100.00;99877.69;1460453;89;22372;-74
2024/03/04 07:33:30;;;;;;;32.23;18.77;;;;;;;9.63;100.00;99880.80;1459657;88;21514;-75
2024/03/04 07:35:57;;;;;;;31.60;19.97;;;;;;;9.84;100.00;99877.79;1457571;89;22246;-75
2024/03/04 07:38:23;;;;;;;33.37;21.33;;;;;;;9.97;100.00;99872.09;1456675;88;21921;-75
2024/03/04 07:40:49;;;;;;;29.77;19.93;;;;;;;10.07;100.00;99872.80;1460310;88;21382;-75
2024/03/04 07:43:15;;;;;;;29.47;19.43;;;;;;;10.13;100.00;99875.66;1456943;88;21397;-75
2024/03/04 07:45:41;;;;;;;29.07;19.00;;;;;;;10.27;100.00;99875.59;1459466;89;22372;-75
2024/03/04 07:48:08;;;;;;;31.10;17.73;;;;;;;10.48;100.00;99874.34;1462679;89;21353;-75
2024/03/04 07:50:34;;;;;;;29.57;18.93;;;;;;;10.70;100.00;99874.22;1460931;88;21633;-74
2024/03/04 07:53:00;;;;;;;24.70;16.27;;;;;;;10.92;100.00;99876.75;1465087;88;21419;-75
2024/03/04 07:55:26;;;;;;;25.57;17.03;;;;;;;11.16;100.00;99875.44;1461318;89;21353;-74
2024/03/04 07:57:52;;;;;;;27.90;16.97;;;;;;;11.40;100.00;99871.16;1462567;88;22125;-76
2024/03/04 08:00:19;;;;;;;26.23;18.40;;;;;;;11.61;100.00;99878.59;1461208;89;21374;-75
2024/03/04 08:02:45;;;;;;;22.33;16.03;;;;;;;11.81;100.00;99880.38;1460094;89;21399;-74
2024/03/04 08:05:12;;;;;;;24.63;16.37;;;;;;;12.01;100.00;99877.71;1462288;89;21418;-74
2024/03/04 08:07:39;;;;;;;26.90;15.83;;;;;;;12.21;100.00;99878.65;1457252;88;21359;-74
2024/03/04 08:10:08;;;;;;;26.27;17.47;;;;;;;12.38;100.00;99874.42;1449550;89;21344;-74
2024/03/04 08:12:36;;;;;;;28.13;17.23;;;;;;;12.56;100.00;99883.45;1541601;88;22108;-75
2024/03/04 08:15:04;;;;;;;25.90;15.93;;;;;;;12.71;100.00;99881.39;1391227;88;21482;-75
2024/03/04 08:17:32;;;;;;;28.37;16.60;;;;;;;12.85;100.00;99884.13;1386202;88;21264;-75
2024/03/04 08:19:59;;;;;;;39.63;18.03;;;;;;;13.03;100.00;99883.86;1391752;88;21359;-75
2024/03/04 08:22:26;;;;;;;18.93;13.47;;;;;;;13.16;100.00;99885.91;1386888;88;22301;-74
2024/03/04 08:24:52;;;;;;;29.57;14.90;;;;;;;13.25;100.00;99884.88;1387526;89;21279;-75
2024/03/04 08:27:19;;;;;;;24.40;15.27;;;;;;;13.36;100.00;99883.64;1387925;88;22189;-75
2024/03/04 08:29:48;;;;;;;24.80;15.10;;;;;;;13.47;100.00;99882.39;1386042;89;21346;-75
2024/03/04 08:32:14;;;;;;;20.17;13.17;;;;;;;13.61;100.00;99882.08;1385976;88;21233;-74
2024/03/04 08:34:40;;;;;;;15.13;9.93;;;;;;;13.76;100.00;99881.62;1387435;89;21338;-75
2024/03/04 08:37:06;;;;;;;22.03;12.30;;;;;;;13.85;100.00;99884.51;1388011;88;21324;-76
2024/03/04 08:39:32;;;;;;;24.70;12.77;;;;;;;13.95;100.00;99875.77;1376840;90;21272;-75
2024/03/04 08:41:59;;;;;;;22.40;12.50;;;;;;;14.01;100.00;99870.19;1388070;88;21324;-75
2024/03/04 08:44:25;;;;;;;15.77;10.50;;;;;;;14.10;100.00;99874.95;1386953;88;22159;-76
2024/03/04 08:46:51;;;;;;;14.43;10.17;;;;;;;14.21;100.00;99866.47;1388193;88;21280;-75
2024/03/04 08:49:17;;;;;;;20.80;11.27;;;;;;;14.32;100.00;99873.98;1387883;88;22137;-76
2024/03/04 08:51:43;;;;;;;16.77;10.60;;;;;;;14.45;100.00;99868.84;1509855;88;21391;-77
2024/03/04 08:54:10;;;;;;;14.83;9.27;;;;;;;14.52;100.00;99869.45;1388135;89;21467;-78
2024/03/04 08:56:38;;;;;;;18.93;9.87;;;;;;;14.59;100.00;99867.20;1387078;88;21405;-78
2024/03/04 08:59:04;;;;;;;16.17;9.03;;;;;;;14.68;100.00;99866.58;1385966;88;21428;-78
2024/03/04 09:01:33;;;;;;;18.77;9.77;;;;;;;14.78;100.00;99863.09;1387956;89;21236;-79
2024/03/04 09:04:00;;;;;;;17.43;9.67;;;;;;;14.94;100.00;99867.37;1384450;89;21365;-77
2024/03/04 09:06:26;;;;;;;22.67;9.93;;;;;;;15.07;100.00;99870.66;1376939;90;21339;-79
2024/03/04 09:08:52;;;;;;;16.17;11.63;;;;;;;15.14;75.86;99873.41;1388030;89;21324;-77
2024/03/04 09:11:18;;;;;;;14.10;9.47;;;;;;;15.15;67.01;99865.72;1387841;88;21236;-77
2024/03/04 09:13:44;;;;;;;19.07;9.60;;;;;;;15.13;66.53;99867.23;1423797;88;21485;-78
2024/03/04 09:16:12;;;;;;;20.73;9.90;;;;;;;15.33;65.55;99874.08;1462009;89;21427;-78
2024/03/04 09:18:41;;;;;;;18.20;9.47;;;;;;;15.39;64.09;99872.48;1460393;89;21477;-77
2024/03/04 09:21:08;;;;;;;17.27;7.87;;;;;;;15.44;63.35;99868.73;1462892;89;21596;-78
2024/03/04 09:23:35;;;;;;;15.13;8.20;;;;;;;15.53;62.38;99872.91;1386786;88;21176;-77
2024/03/04 09:26:03;;;;;;;18.07;8.40;;;;;;;15.49;61.71;99867.66;1387057;88;21227;-79
2024/03/04 09:28:29;;;;;;;29.80;11.10;;;;;;;15.58;60.83;99867.83;1385898;88;21421;-78
2024/03/04 09:30:55;;;;;;;17.27;9.23;;;;;;;15.69;61.02;99861.98;1388165;88;21265;-78
2024/03/04 09:33:21;;;;;;;17.83;9.67;;;;;;;15.92;60.28;99860.91;1387622;88;21459;-78
2024/03/04 09:35:47;;;;;;;12.77;8.13;;;;;;;16.27;60.59;99864.89;1402057;88;21501;-77
2024/03/04 09:38:13;;;;;;;19.33;9.50;;;;;;;16.66;57.37;99867.72;1461783;88;21412;-79
2024/03/04 09:40:45;;;;;;;13.73;10.07;;;;;;;17.04;58.17;99866.41;1462205;89;21813;-77
2024/03/04 09:43:14;;;;;;;15.73;9.83;;;;;;;17.53;57.74;99864.67;1462707;88;22604;-78
2024/03/04 09:45:41;;;;;;;17.12;9.95;;;;;;;18.18;55.80;99864.81;1464325;88;21618;-78
2024/03/04 09:48:10;;;;;;;13.90;8.78;;;;;;;18.88;55.36;99866.27;1433248;89;21390;-78
2024/03/04 09:50:37;;;;;;;12.18;7.78;;;;;;;19.04;52.89;99868.93;1448528;89;22666;-78
2024/03/04 09:53:03;;;;;;;14.10;7.95;;;;;;;19.18;52.10;99868.33;1457241;89;21449;-77
2024/03/04 09:55:29;;;;;;;18.92;7.65;;;;;;;19.34;46.62;99863.78;1447273;89;21375;-79
2024/03/04 09:57:55;;;;;;;11.85;6.65;;;;;;;19.63;46.70;99867.36;1457739;88;22292;-79
2024/03/04 10:00:23;;;;;;;10.80;7.00;;;;;;;19.71;45.29;99861.23;1454682;89;21508;-77
2024/03/04 10:02:49;;;;;;;19.45;7.62;;;;;;;19.98;46.10;99856.92;1458742;88;22398;-78
2024/03/04 10:05:16;;;;;;;13.18;7.37;;;;;;;20.03;45.89;99855.21;1472458;88;21316;-79
2024/03/04 10:07:43;;;;;;;14.03;7.10;;;;;;;19.97;41.72;99859.31;1455448;89;22188;-78
2024/03/04 10:10:14;;;;;;;19.10;8.35;;;;;;;19.94;40.83;99857.05;1462573;89;21294;-79
2024/03/04 10:12:40;;;;;;;15.03;7.55;;;;;;;19.61;43.12;99860.86;1459165;88;22000;-78
2024/03/04 10:15:12;;;;;;;13.18;7.05;;;;;;;19.55;42.09;99854.51;1443855;89;21409;-79
2024/03/04 10:17:38;;;;;;;9.93;6.90;;;;;;;19.45;42.67;99857.38;1460838;89;21548;-79
2024/03/04 10:20:09;;;;;;;12.75;6.97;;;;;;;19.43;42.92;99851.44;1457772;88;21649;-78
2024/03/04 10:22:38;;;;;;;18.50;7.30;;;;;;;19.52;41.83;99851.45;1384464;89;21531;-78
2024/03/04 10:25:11;;;;;;;14.90;6.87;;;;;;;19.73;43.13;99846.22;1384665;90;21383;-78
2024/03/04 10:27:41;;;;;;;13.83;7.72;;;;;;;19.86;41.53;99847.97;1453922;89;22366;-78
2024/03/04 10:30:15;;;;;;;21.17;7.45;;;;;;;20.01;42.55;99840.36;1459222;88;21476;-78
2024/03/04 10:32:55;;;;;;;12.00;6.22;;;;;;;20.14;41.91;99837.53;1465407;89;21294;-78
2024/03/04 10:35:21;;;;;;;12.23;7.40;;;;;;;20.09;40.72;99833.87;1459678;89;21657;-79
2024/03/04 10:37:51;;;;;;;16.15;7.45;;;;;;;20.32;42.22;99835.88;1464809;89;22395;-79
2024/03/04 10:40:22;;;;;;;16.50;9.03;;;;;;;20.44;41.06;99828.69;1461937;89;21467;-78
2024/03/04 10:42:49;;;;;;;17.23;8.68;;;;;;;20.53;41.38;99816.59;1461094;88;22209;-79
2024/03/04 10:45:15;;;;;;;19.07;10.10;;;;;;;20.53;41.38;99816.59;1468387;89;21292;-78
2024/03/04 10:47:49;;;;;;;15.43;8.20;;;;;;;20.62;40.13;99828.67;1456703;89;21629;-77
2024/03/04 10:50:14;;;;;;;14.25;8.30;;;;;;;20.70;40.69;99822.16;1458238;88;21426;-78
2024/03/04 10:52:43;;;;;;;20.10;7.55;;;;;;;20.84;39.97;99820.92;1452377;88;21537;-78
2024/03/04 10:55:11;;;;;;;10.18;6.05;;;;;;;20.65;39.54;99814.77;1452529;90;22396;-77
2024/03/04 10:57:44;;;;;;;10.28;5.37;;;;;;;20.45;39.05;99823.06;1442309;90;21390;-78
2024/03/04 11:00:31;;;;;;;13.72;6.78;;;;;;;20.37;39.63;99815.84;1453547;89;21250;-83
2024/03/04 11:03:09;;;;;;;14.60;6.80;;;;;;;20.43;39.91;99810.93;1450408;89;21591;-82
2024/03/04 11:05:38;;;;;;;16.67;7.33;;;;;;;20.59;40.59;99806.80;1456046;89;21465;-83
2024/03/04 11:08:15;;;;;;;24.43;8.18;;;;;;;20.84;40.83;99800.75;1450191;89;21457;-84
2024/03/04 11:10:50;;;;;;;18.82;8.68;;;;;;;20.84;37.25;99801.28;1451556;90;21412;-83
2024/03/04 11:13:50;;;;;;;15.58;7.05;;;;;;;20.91;38.21;99800.63;1455857;89;21405;-82
2024/03/04 11:16:39;;;;;;;21.57;6.12;;;;;;;20.99;38.49;99794.92;1453033;89;21545;-83
2024/03/04 11:19:31;;;;;;;10.43;6.55;;;;;;;21.07;38.65;99793.25;1454165;89;22336;-79
2024/03/04 11:21:59;;;;;;;10.38;6.92;;;;;;;21.03;37.41;99790.74;1454141;90;21449;-79
2024/03/04 11:24:27;;;;;;;13.62;7.33;;;;;;;20.93;38.80;99781.06;1453037;89;21479;-81